createdAt,value
2022-08-25T00:00:30.505Z,18.08
2022-08-25T00:03:00.729Z,18.02
2022-08-25T00:05:33.417Z,20.02
2022-08-25T00:08:04.836Z,19.83
2022-08-25T00:10:36.168Z,20.40
2022-08-25T00:13:06.564Z,20.60
2022-08-25T00:15:36.456Z,18.42
2022-08-25T00:18:16.978Z,18.48
2022-08-25T00:20:50.482Z,17.50
2022-08-25T00:23:20.840Z,15.52
2022-08-25T00:25:50.158Z,16.27
2022-08-25T00:28:19.368Z,12.50
2022-08-25T00:30:50.169Z,10.32
2022-08-25T00:33:19.928Z,9.75
2022-08-25T00:35:49.155Z,9.02
2022-08-25T00:38:18.538Z,9.90
2022-08-25T00:40:48.112Z,9.05
2022-08-25T00:43:18.845Z,8.88
2022-08-25T00:45:47.945Z,8.43
2022-08-25T00:48:17.105Z,8.38
2022-08-25T00:50:46.293Z,8.00
2022-08-25T00:53:15.880Z,7.68
2022-08-25T00:55:45.224Z,6.68
2022-08-25T00:58:20.221Z,6.40
2022-08-25T01:00:52.146Z,5.95
2022-08-25T01:03:21.863Z,4.78
2022-08-25T01:05:56.163Z,4.82
2022-08-25T01:08:29.724Z,5.80
2022-08-25T01:11:06.016Z,5.30
2022-08-25T01:13:38.148Z,6.75
2022-08-25T01:16:07.704Z,7.72
2022-08-25T01:18:51.956Z,8.68
2022-08-25T01:21:23.401Z,7.55
2022-08-25T01:23:53.752Z,6.80
2022-08-25T01:26:30.796Z,6.78
2022-08-25T01:29:21.907Z,6.28
2022-08-25T01:31:52.783Z,5.75
2022-08-25T01:34:22.668Z,6.30
2022-08-25T01:36:51.711Z,5.30
2022-08-25T01:39:20.783Z,5.43
2022-08-25T01:42:19.128Z,5.57
2022-08-25T01:44:49.439Z,5.57
2022-08-25T01:47:18.798Z,5.63
2022-08-25T01:49:48.146Z,5.97
2022-08-25T01:52:23.018Z,6.13
2022-08-25T01:54:52.270Z,6.05
2022-08-25T01:57:21.363Z,6.20
2022-08-25T01:59:50.658Z,7.15
2022-08-25T02:02:19.776Z,6.97
2022-08-25T02:04:49.654Z,6.72
2022-08-25T02:07:20.495Z,7.22
2022-08-25T02:09:49.600Z,7.10
2022-08-25T02:12:18.632Z,8.02
2022-08-25T02:14:48.082Z,9.50
2022-08-25T02:17:18.310Z,9.80
2022-08-25T02:19:47.852Z,9.32
2022-08-25T02:22:18.335Z,9.25
2022-08-25T02:24:47.633Z,9.80
2022-08-25T02:27:16.869Z,8.07
2022-08-25T02:29:46.537Z,8.57
2022-08-25T02:32:15.528Z,8.57
2022-08-25T02:34:44.741Z,8.90
2022-08-25T02:37:13.856Z,7.25
2022-08-25T02:39:42.952Z,8.50
2022-08-25T02:42:12.135Z,7.57
2022-08-25T02:44:41.340Z,8.73
2022-08-25T02:47:10.917Z,7.32
2022-08-25T02:49:40.049Z,6.80
2022-08-25T02:52:09.541Z,6.82
2022-08-25T02:54:38.834Z,7.80
2022-08-25T02:57:07.889Z,6.35
2022-08-25T02:59:36.966Z,7.28
2022-08-25T03:02:07.062Z,7.07
2022-08-25T03:04:36.196Z,7.93
2022-08-25T03:07:06.433Z,7.47
2022-08-25T03:09:36.090Z,7.32
2022-08-25T03:12:07.953Z,7.25
2022-08-25T03:14:36.913Z,7.03
2022-08-25T03:17:08.835Z,6.82
2022-08-25T03:19:38.133Z,7.65
2022-08-25T03:22:08.002Z,8.32
2022-08-25T03:24:36.984Z,7.60
2022-08-25T03:27:06.758Z,6.93
2022-08-25T03:29:35.692Z,8.40
2022-08-25T03:32:06.242Z,6.93
2022-08-25T03:34:35.822Z,7.18
2022-08-25T03:37:06.674Z,7.20
2022-08-25T03:39:36.140Z,8.35
2022-08-25T03:42:05.736Z,7.10
2022-08-25T03:44:34.815Z,7.20
2022-08-25T03:47:04.066Z,6.80
2022-08-25T03:49:33.385Z,7.20
2022-08-25T03:52:04.401Z,6.00
2022-08-25T03:54:33.357Z,6.93
2022-08-25T03:57:02.397Z,7.03
2022-08-25T03:59:31.443Z,7.43
2022-08-25T04:02:00.921Z,7.75
2022-08-25T04:04:30.266Z,6.65
2022-08-25T04:07:00.497Z,6.68
2022-08-25T04:09:33.147Z,7.88
2022-08-25T04:12:06.258Z,7.68
2022-08-25T04:14:35.998Z,7.68
2022-08-25T04:17:05.901Z,7.88
2022-08-25T04:19:35.298Z,8.48
2022-08-25T04:22:04.267Z,7.68
2022-08-25T04:24:33.822Z,9.02
2022-08-25T04:27:03.109Z,8.52
2022-08-25T04:29:32.375Z,10.25
2022-08-25T04:32:01.473Z,8.32
2022-08-25T04:34:49.859Z,9.35
2022-08-25T04:37:19.219Z,8.88
2022-08-25T04:39:48.224Z,9.43
2022-08-25T04:42:17.590Z,8.60
2022-08-25T04:44:46.551Z,10.32
2022-08-25T04:47:15.758Z,10.30
2022-08-25T04:49:44.844Z,9.05
2022-08-25T04:52:14.709Z,11.25
2022-08-25T04:54:44.991Z,10.00
2022-08-25T04:57:14.504Z,9.52
2022-08-25T04:59:43.526Z,10.18
2022-08-25T05:02:13.055Z,9.32
2022-08-25T05:04:42.476Z,10.05
2022-08-25T05:07:11.728Z,9.07
2022-08-25T05:09:41.358Z,9.82
2022-08-25T05:12:10.671Z,10.13
2022-08-25T05:14:41.783Z,11.40
2022-08-25T05:17:11.087Z,9.98
2022-08-25T05:19:40.268Z,9.93
2022-08-25T05:22:09.957Z,11.63
2022-08-25T05:24:39.370Z,12.18
2022-08-25T05:27:08.835Z,12.32
2022-08-25T05:29:37.978Z,13.07
2022-08-25T05:32:07.332Z,12.43
2022-08-25T05:34:38.296Z,11.80
2022-08-25T05:37:10.387Z,10.15
2022-08-25T05:39:41.694Z,11.43
2022-08-25T05:42:10.832Z,10.48
2022-08-25T05:44:40.823Z,12.75
2022-08-25T05:47:13.644Z,12.95
2022-08-25T05:49:43.058Z,11.82
2022-08-25T05:52:15.336Z,13.93
2022-08-25T05:54:48.461Z,12.00
2022-08-25T05:57:19.487Z,12.07
2022-08-25T05:59:49.460Z,11.23
2022-08-25T06:02:37.367Z,13.52
2022-08-25T06:05:08.840Z,12.63
2022-08-25T06:07:41.987Z,12.68
2022-08-25T06:10:15.474Z,12.10
2022-08-25T06:12:48.558Z,13.27
2022-08-25T06:15:22.308Z,12.80
2022-08-25T06:17:56.691Z,12.02
2022-08-25T06:20:30.742Z,11.05
2022-08-25T06:23:02.801Z,12.63
2022-08-25T06:25:34.758Z,13.23
2022-08-25T06:28:04.050Z,13.27
2022-08-25T06:30:33.135Z,12.50
2022-08-25T06:33:02.548Z,13.48
2022-08-25T06:35:31.740Z,12.30
2022-08-25T06:38:03.984Z,11.52
2022-08-25T06:40:33.236Z,12.15
2022-08-25T06:43:02.202Z,11.60
2022-08-25T06:45:32.204Z,13.32
2022-08-25T06:48:01.392Z,10.88
2022-08-25T06:50:30.456Z,13.00
2022-08-25T06:52:59.699Z,12.57
2022-08-25T06:55:28.674Z,12.77
2022-08-25T06:57:57.798Z,12.35
2022-08-25T07:00:30.424Z,11.77
2022-08-25T07:03:02.326Z,12.20
2022-08-25T07:05:43.468Z,13.15
2022-08-25T07:08:13.708Z,12.52
2022-08-25T07:10:42.688Z,12.25
2022-08-25T07:13:17.729Z,12.30
2022-08-25T07:15:47.048Z,12.52
2022-08-25T07:18:16.713Z,12.38
2022-08-25T07:20:49.938Z,12.48
2022-08-25T07:23:22.590Z,11.77
2022-08-25T07:25:52.230Z,11.15
2022-08-25T07:28:22.841Z,10.73
2022-08-25T07:30:54.648Z,12.13
2022-08-25T07:33:23.727Z,11.80
2022-08-25T07:35:52.771Z,12.38
2022-08-25T07:38:21.975Z,10.70
2022-08-25T07:40:57.432Z,11.45
2022-08-25T07:43:27.288Z,11.15
2022-08-25T07:45:57.707Z,11.20
2022-08-25T07:48:27.861Z,11.40
2022-08-25T07:50:56.922Z,11.50
2022-08-25T07:53:26.927Z,9.45
2022-08-25T07:55:55.905Z,11.20
2022-08-25T07:58:25.352Z,10.90
2022-08-25T08:00:54.676Z,10.93
2022-08-25T08:03:44.757Z,11.70
2022-08-25T08:06:21.664Z,11.57
2022-08-25T08:08:54.786Z,11.52
2022-08-25T08:11:30.305Z,10.57
2022-08-25T08:14:00.465Z,10.73
2022-08-25T08:16:31.300Z,10.63
2022-08-25T08:19:05.044Z,9.18
2022-08-25T08:21:38.016Z,9.05
2022-08-25T08:26:59.035Z,9.55
2022-08-25T08:29:29.012Z,9.05
2022-08-25T08:31:58.529Z,11.45
2022-08-25T08:34:31.985Z,10.45
2022-08-25T08:37:12.014Z,9.65
2022-08-25T08:39:43.235Z,10.25
2022-08-25T08:42:49.133Z,11.27
2022-08-25T08:45:20.853Z,10.38
2022-08-25T08:48:04.888Z,10.18
2022-08-25T08:50:39.044Z,10.23
2022-08-25T08:53:23.078Z,10.13
2022-08-25T08:56:02.596Z,9.45
2022-08-25T08:58:58.036Z,9.65
2022-08-25T09:01:37.449Z,9.05
2022-08-25T09:04:18.034Z,9.55
2022-08-25T09:06:51.968Z,9.77
2022-08-25T09:09:35.613Z,9.15
2022-08-25T09:12:28.505Z,9.38
2022-08-25T09:18:13.062Z,7.93
2022-08-25T09:20:48.848Z,8.77
2022-08-25T09:23:36.704Z,8.20
2022-08-25T09:26:29.835Z,8.07
2022-08-25T09:29:25.321Z,8.40
2022-08-25T09:32:00.943Z,7.28
2022-08-25T09:34:35.306Z,8.48
2022-08-25T09:37:04.878Z,9.30
2022-08-25T09:39:33.788Z,8.98
2022-08-25T09:42:02.939Z,9.73
2022-08-25T09:44:44.730Z,10.07
2022-08-25T09:47:16.717Z,10.00
2022-08-25T09:49:58.402Z,9.65
2022-08-25T09:52:34.001Z,9.55
2022-08-25T09:55:15.543Z,9.35
2022-08-25T09:57:44.640Z,9.53
2022-08-25T10:00:25.562Z,8.98
2022-08-25T10:03:16.345Z,9.52
2022-08-25T10:05:56.474Z,9.63
2022-08-25T10:08:49.389Z,9.50
2022-08-25T10:11:46.810Z,10.88
2022-08-25T10:14:22.179Z,10.10
2022-08-25T10:16:52.403Z,10.55
2022-08-25T10:19:30.975Z,9.30
2022-08-25T10:22:34.048Z,10.55
2022-08-25T10:25:08.403Z,9.88
2022-08-25T10:27:41.061Z,10.32
2022-08-25T10:30:21.120Z,10.35
2022-08-25T10:33:17.497Z,10.07
2022-08-25T10:36:05.887Z,9.27
2022-08-25T10:38:43.098Z,9.55
2022-08-25T10:41:30.815Z,9.40
2022-08-25T10:44:10.869Z,9.18
2022-08-25T10:46:40.564Z,8.90
2022-08-25T10:51:53.335Z,9.43
2022-08-25T10:54:44.045Z,9.85
2022-08-25T10:57:37.909Z,9.85
2022-08-25T11:00:19.353Z,9.60
2022-08-25T11:03:01.456Z,9.70
2022-08-25T11:05:59.093Z,9.77
2022-08-25T11:08:50.257Z,9.15
2022-08-25T11:11:32.976Z,8.77
2022-08-25T11:14:11.955Z,9.45
2022-08-25T11:16:49.568Z,9.30
2022-08-25T11:19:22.188Z,8.80
2022-08-25T11:22:12.081Z,9.43
2022-08-25T11:25:00.712Z,9.73
2022-08-25T11:27:54.439Z,9.55
2022-08-25T11:30:24.332Z,9.70
2022-08-25T11:32:56.898Z,9.75
2022-08-25T11:35:37.326Z,10.90
2022-08-25T11:38:20.860Z,10.73
2022-08-25T11:40:59.681Z,11.30
2022-08-25T11:43:40.570Z,10.18
2022-08-25T11:46:18.901Z,10.52
2022-08-25T11:49:22.255Z,10.75
2022-08-25T11:51:52.969Z,11.25
2022-08-25T11:54:44.692Z,10.48
2022-08-25T11:57:30.391Z,10.98
2022-08-25T12:00:15.743Z,11.35
2022-08-25T12:02:54.520Z,13.35
2022-08-25T12:05:25.837Z,10.40
2022-08-25T12:08:13.406Z,10.90
2022-08-25T12:11:10.893Z,10.07
2022-08-25T12:13:52.851Z,10.65
2022-08-25T12:16:38.073Z,10.63
2022-08-25T12:19:50.206Z,10.93
2022-08-25T12:22:23.632Z,10.67
2022-08-25T12:25:33.886Z,10.27
2022-08-25T12:28:19.572Z,11.82
2022-08-25T12:31:00.696Z,9.95
2022-08-25T12:33:49.504Z,9.93
2022-08-25T12:36:33.551Z,10.18
2022-08-25T12:39:35.234Z,9.43
2022-08-25T12:42:23.280Z,11.80
2022-08-25T12:45:16.599Z,12.88
2022-08-25T12:47:48.784Z,13.52
2022-08-25T12:50:38.169Z,12.40
2022-08-25T12:53:24.067Z,10.27
2022-08-25T12:56:03.035Z,11.25
2022-08-25T12:59:04.146Z,12.50
2022-08-25T13:01:45.818Z,11.60
2022-08-25T13:07:34.664Z,11.23
2022-08-25T13:10:22.724Z,12.68
2022-08-25T13:13:12.327Z,11.95
2022-08-25T13:15:54.925Z,12.00
2022-08-25T13:18:33.123Z,13.57
2022-08-25T13:21:26.693Z,14.18
2022-08-25T13:26:52.038Z,14.20
2022-08-25T13:29:25.988Z,14.57
2022-08-25T13:32:01.306Z,14.43
2022-08-25T13:34:35.528Z,17.67
2022-08-25T13:37:30.458Z,15.85
2022-08-25T13:40:13.401Z,16.02
2022-08-25T13:45:27.427Z,13.77
2022-08-25T13:47:57.247Z,17.40
2022-08-25T13:50:32.814Z,17.08
2022-08-25T13:53:05.639Z,16.92
2022-08-25T13:55:51.843Z,17.15
2022-08-25T13:58:32.399Z,19.23
2022-08-25T14:01:47.338Z,18.55
2022-08-25T14:04:50.868Z,19.15
2022-08-25T14:07:24.344Z,17.17
2022-08-25T14:09:58.608Z,21.02
2022-08-25T14:12:41.829Z,16.35
2022-08-25T14:15:22.563Z,17.15
2022-08-25T14:18:05.474Z,17.35
2022-08-25T14:20:37.120Z,16.70
2022-08-25T14:23:16.273Z,17.47
2022-08-25T14:25:50.487Z,14.07
2022-08-25T14:28:23.925Z,15.32
2022-08-25T14:30:59.491Z,15.75
2022-08-25T14:33:37.025Z,16.23
2022-08-25T14:36:07.785Z,16.58
2022-08-25T14:38:41.205Z,17.02
2022-08-25T14:41:13.433Z,15.77
2022-08-25T14:43:44.842Z,16.83
2022-08-25T14:46:23.389Z,18.38
2022-08-25T14:48:57.971Z,19.17
2022-08-25T14:51:30.143Z,18.58
2022-08-25T14:54:09.220Z,26.70
2022-08-25T14:56:38.378Z,28.67
2022-08-25T14:59:12.444Z,21.88
2022-08-25T15:01:42.101Z,19.58
2022-08-25T15:04:17.573Z,17.90
2022-08-25T15:06:47.971Z,17.42
2022-08-25T15:09:19.325Z,17.85
2022-08-25T15:11:51.357Z,15.57
2022-08-25T15:14:28.420Z,16.98
2022-08-25T15:16:59.138Z,16.95
2022-08-25T15:19:28.913Z,17.05
2022-08-25T15:21:59.397Z,16.48
2022-08-25T15:24:31.021Z,17.55
2022-08-25T15:27:05.190Z,18.77
2022-08-25T15:29:36.574Z,18.60
2022-08-25T15:32:08.658Z,17.40
2022-08-25T15:34:38.365Z,17.42
2022-08-25T15:37:11.833Z,15.73
2022-08-25T15:39:42.513Z,16.40
2022-08-25T15:42:15.085Z,16.02
2022-08-25T15:44:53.081Z,18.50
2022-08-25T15:47:25.206Z,18.35
2022-08-25T15:50:08.205Z,19.85
2022-08-25T15:52:46.673Z,17.77
2022-08-25T15:55:18.225Z,17.00
2022-08-25T15:57:50.013Z,17.55
2022-08-25T16:00:21.545Z,15.80
2022-08-25T16:02:50.971Z,17.10
2022-08-25T16:05:25.151Z,17.67
2022-08-25T16:07:55.239Z,15.75
2022-08-25T16:10:25.152Z,17.70
2022-08-25T16:12:54.417Z,16.90
2022-08-25T16:15:24.007Z,17.40
2022-08-25T16:18:01.380Z,19.40
2022-08-25T16:20:37.011Z,23.92
2022-08-25T16:23:06.781Z,22.95
2022-08-25T16:25:41.577Z,23.92
2022-08-25T16:28:13.618Z,22.58
2022-08-25T16:30:52.944Z,22.35
2022-08-25T16:33:22.675Z,21.08
2022-08-25T16:35:51.830Z,20.42
2022-08-25T16:38:20.905Z,20.70
2022-08-25T16:40:49.916Z,20.45
2022-08-25T16:43:19.221Z,20.83
2022-08-25T16:45:48.491Z,18.58
2022-08-25T16:48:17.461Z,19.65
2022-08-25T16:50:47.051Z,20.67
2022-08-25T16:53:36.212Z,20.65
2022-08-25T16:56:08.604Z,19.27
2022-08-25T16:58:40.599Z,19.00
2022-08-25T17:01:15.177Z,18.52
2022-08-25T17:03:44.939Z,20.40
2022-08-25T17:06:15.282Z,19.42
2022-08-25T17:08:44.831Z,21.63
2022-08-25T17:11:20.614Z,19.15
2022-08-25T17:13:53.329Z,18.63
2022-08-25T17:16:24.180Z,19.25
2022-08-25T17:18:53.732Z,18.05
2022-08-25T17:21:25.063Z,20.55
2022-08-25T17:23:56.720Z,19.00
2022-08-25T17:26:29.073Z,18.75
2022-08-25T17:29:02.495Z,19.20
2022-08-25T17:31:32.017Z,19.48
2022-08-25T17:34:03.647Z,20.23
2022-08-25T17:36:33.194Z,19.70
2022-08-25T17:39:03.261Z,19.05
2022-08-25T17:41:32.578Z,19.60
2022-08-25T17:44:02.201Z,19.27
2022-08-25T17:46:31.535Z,19.85
2022-08-25T17:49:00.949Z,19.55
2022-08-25T17:51:31.731Z,18.35
2022-08-25T17:54:01.518Z,16.63
2022-08-25T17:56:31.024Z,18.05
2022-08-25T17:59:00.775Z,19.00
2022-08-25T18:01:34.163Z,18.48
2022-08-25T18:04:03.568Z,17.52
2022-08-25T18:06:34.386Z,17.83
2022-08-25T18:09:05.786Z,18.55
2022-08-25T18:11:35.252Z,18.17
2022-08-25T18:14:06.162Z,18.50
2022-08-25T18:16:35.713Z,17.83
2022-08-25T18:19:09.430Z,18.30
2022-08-25T18:21:39.737Z,17.58
2022-08-25T18:24:09.381Z,17.35
2022-08-25T18:26:38.518Z,16.83
2022-08-25T18:29:07.915Z,17.30
2022-08-25T18:31:37.620Z,18.13
2022-08-25T18:34:10.573Z,17.23
2022-08-25T18:36:40.750Z,17.23
2022-08-25T18:39:31.557Z,18.42
2022-08-25T18:42:07.301Z,17.95
2022-08-25T18:44:37.212Z,19.77
2022-08-25T18:47:07.797Z,19.30
2022-08-25T18:49:38.347Z,20.58
2022-08-25T18:52:07.860Z,18.83
2022-08-25T18:54:37.031Z,18.65
2022-08-25T18:57:08.728Z,19.23
2022-08-25T18:59:38.953Z,19.80
2022-08-25T19:02:08.980Z,19.58
2022-08-25T19:04:39.787Z,18.98
2022-08-25T19:07:13.396Z,20.55
2022-08-25T19:09:42.528Z,19.27
2022-08-25T19:12:22.666Z,20.13
2022-08-25T19:14:52.856Z,18.73
2022-08-25T19:17:24.655Z,21.88
2022-08-25T19:19:54.347Z,19.85
2022-08-25T19:22:40.635Z,19.63
2022-08-25T19:25:12.861Z,19.20
2022-08-25T19:27:43.592Z,19.97
2022-08-25T19:30:15.643Z,21.40
2022-08-25T19:32:47.322Z,19.77
2022-08-25T19:35:45.160Z,20.08
2022-08-25T19:38:33.370Z,22.10
2022-08-25T19:41:13.983Z,20.30
2022-08-25T19:43:55.469Z,21.70
2022-08-25T19:46:35.355Z,23.52
2022-08-25T19:49:27.268Z,23.55
2022-08-25T19:52:03.645Z,22.23
2022-08-25T19:54:37.406Z,21.85
2022-08-25T19:57:11.043Z,21.15
2022-08-25T19:59:43.437Z,24.92
2022-08-25T20:02:33.396Z,21.48
2022-08-25T20:05:03.575Z,22.85
2022-08-25T20:07:34.030Z,21.65
2022-08-25T20:10:05.587Z,23.27
2022-08-25T20:12:35.759Z,22.92
2022-08-25T20:15:07.551Z,24.30
2022-08-25T20:17:37.379Z,23.38
2022-08-25T20:20:14.989Z,24.17
2022-08-25T20:22:44.553Z,23.23
2022-08-25T20:25:18.904Z,24.73
2022-08-25T20:27:52.924Z,23.00
2022-08-25T20:32:54.037Z,22.98
2022-08-25T20:35:26.449Z,23.20
2022-08-25T20:37:58.293Z,23.80
2022-08-25T20:40:30.341Z,21.52
2022-08-25T20:43:03.337Z,22.42
2022-08-25T20:45:32.870Z,24.27
2022-08-25T20:48:01.972Z,27.90
2022-08-25T20:50:32.340Z,23.05
2022-08-25T20:53:03.067Z,23.00
2022-08-25T20:55:33.961Z,23.77
2022-08-25T20:58:11.890Z,24.95
2022-08-25T21:00:46.719Z,23.70
2022-08-25T21:03:16.246Z,24.00
2022-08-25T21:05:49.437Z,25.63
2022-08-25T21:08:23.664Z,23.58
2022-08-25T21:10:53.648Z,25.55
2022-08-25T21:13:22.932Z,25.48
2022-08-25T21:15:51.897Z,24.88
2022-08-25T21:18:21.789Z,24.95
2022-08-25T21:20:50.715Z,22.73
2022-08-25T21:23:21.950Z,22.60
2022-08-25T21:25:51.904Z,23.45
2022-08-25T21:28:21.264Z,21.80
2022-08-25T21:30:50.896Z,21.90
2022-08-25T21:33:26.356Z,21.65
2022-08-25T21:38:26.711Z,22.02
2022-08-25T21:40:56.628Z,22.05
2022-08-25T21:43:26.142Z,21.45
2022-08-25T21:45:56.181Z,21.75
2022-08-25T21:48:25.185Z,21.50
2022-08-25T21:51:06.269Z,20.92
2022-08-25T21:53:35.862Z,21.98
2022-08-25T21:56:10.317Z,22.33
2022-08-25T21:58:40.627Z,21.58
2022-08-25T22:01:11.853Z,21.85
2022-08-25T22:03:44.547Z,22.50
2022-08-25T22:06:17.190Z,21.45
2022-08-25T22:08:46.539Z,22.60
2022-08-25T22:11:17.665Z,21.15
2022-08-25T22:13:50.401Z,20.83
2022-08-25T22:16:20.906Z,21.57
2022-08-25T22:18:51.936Z,20.50
2022-08-25T22:21:28.454Z,20.58
2022-08-25T22:23:58.315Z,22.23
2022-08-25T22:26:33.117Z,23.05
2022-08-25T22:29:03.071Z,22.60
2022-08-25T22:31:33.972Z,23.50
2022-08-25T22:34:03.245Z,21.67
2022-08-25T22:36:37.064Z,21.05
2022-08-25T22:39:09.338Z,22.67
2022-08-25T22:44:12.616Z,22.35
2022-08-25T22:46:41.674Z,23.50
2022-08-25T22:49:14.515Z,23.58
2022-08-25T22:51:43.578Z,24.65
2022-08-25T22:54:16.058Z,23.92
2022-08-25T22:56:45.214Z,24.40
2022-08-25T22:59:15.502Z,26.27
2022-08-25T23:01:46.153Z,26.20
2022-08-25T23:04:17.928Z,25.83
2022-08-25T23:06:48.523Z,27.17
2022-08-25T23:09:17.749Z,27.17
2022-08-25T23:11:46.889Z,26.63
2022-08-25T23:14:16.339Z,26.63
2022-08-25T23:16:45.783Z,28.90
2022-08-25T23:19:15.847Z,27.92
2022-08-25T23:22:04.914Z,27.55
2022-08-25T23:24:35.054Z,29.27
2022-08-25T23:27:06.679Z,28.25
2022-08-25T23:29:40.130Z,29.95
2022-08-25T23:32:10.796Z,30.70
2022-08-25T23:34:46.564Z,32.65
2022-08-25T23:37:18.687Z,30.58
2022-08-25T23:39:50.059Z,32.65
2022-08-25T23:42:21.605Z,31.50
2022-08-25T23:44:50.989Z,32.92
2022-08-25T23:47:20.501Z,32.38
2022-08-25T23:49:49.846Z,33.65
2022-08-25T23:52:19.294Z,32.67
2022-08-25T23:54:48.402Z,32.05
2022-08-25T23:57:18.904Z,32.38
2022-08-25T23:59:48.878Z,34.92
